Terminal Aerodrome Forecast
Issued by NWS Grand Rapids, MI

Home | Current Version | Previous Version | Text Only | Print | Product List | Glossary On
Versions: 1 2 3 4 5 6 7 8 9 10 11 12 13 14 15 16 17 18 19 20 21
000
FTUS43 KGRR 211200 AAA
TAFGRR
TAF AMD
KGRR 211258Z 2113/2212 35011KT P6SM VCSH OVC015
     FM211430 01010KT P6SM BKN025
     FM212300 03006KT P6SM SCT035=

USA.gov is the U.S. government's official web portal to all federal, state and local government web resources and services.